sensor_id;sensor_type;location;lat;lon;timestamp;P1;durP1;ratioP1;P2;durP2;ratioP2
9968;SDS011;5025;48.890;9.278;2023-03-03T00:02:13;26.77;;;20.13;;
9968;SDS011;5025;48.890;9.278;2023-03-03T00:04:39;26.03;;;20.03;;
9968;SDS011;5025;48.890;9.278;2023-03-03T00:07:04;25.63;;;20.40;;
9968;SDS011;5025;48.890;9.278;2023-03-03T00:09:29;28.40;;;20.07;;
9968;SDS011;5025;48.890;9.278;2023-03-03T00:11:55;29.83;;;23.70;;
9968;SDS011;5025;48.890;9.278;2023-03-03T00:14:25;31.63;;;24.67;;
9968;SDS011;5025;48.890;9.278;2023-03-03T00:16:54;31.53;;;24.10;;
9968;SDS011;5025;48.890;9.278;2023-03-03T00:19:21;34.60;;;25.07;;
9968;SDS011;5025;48.890;9.278;2023-03-03T00:21:48;31.90;;;24.83;;
9968;SDS011;5025;48.890;9.278;2023-03-03T00:24:34;33.70;;;24.97;;
9968;SDS011;5025;48.890;9.278;2023-03-03T00:27:06;36.50;;;25.33;;
9968;SDS011;5025;48.890;9.278;2023-03-03T00:29:46;35.07;;;24.70;;
9968;SDS011;5025;48.890;9.278;2023-03-03T00:35:21;29.60;;;22.17;;
9968;SDS011;5025;48.890;9.278;2023-03-03T00:37:53;26.80;;;21.63;;
9968;SDS011;5025;48.890;9.278;2023-03-03T00:40:22;27.33;;;22.23;;
9968;SDS011;5025;48.890;9.278;2023-03-03T00:42:57;27.20;;;20.67;;
9968;SDS011;5025;48.890;9.278;2023-03-03T00:45:39;27.37;;;20.37;;
9968;SDS011;5025;48.890;9.278;2023-03-03T00:48:18;28.33;;;22.40;;
9968;SDS011;5025;48.890;9.278;2023-03-03T00:50:49;24.97;;;19.53;;
9968;SDS011;5025;48.890;9.278;2023-03-03T00:53:17;24.27;;;19.47;;
9968;SDS011;5025;48.890;9.278;2023-03-03T00:55:44;26.40;;;20.60;;
9968;SDS011;5025;48.890;9.278;2023-03-03T00:58:11;23.20;;;19.20;;
9968;SDS011;5025;48.890;9.278;2023-03-03T01:00:37;27.40;;;20.73;;
9968;SDS011;5025;48.890;9.278;2023-03-03T01:03:04;27.50;;;20.70;;
9968;SDS011;5025;48.890;9.278;2023-03-03T01:05:32;27.33;;;21.87;;
9968;SDS011;5025;48.890;9.278;2023-03-03T01:07:58;25.77;;;20.73;;
9968;SDS011;5025;48.890;9.278;2023-03-03T01:10:25;26.07;;;20.13;;
9968;SDS011;5025;48.890;9.278;2023-03-03T01:12:52;26.43;;;20.70;;
9968;SDS011;5025;48.890;9.278;2023-03-03T01:15:18;27.13;;;21.27;;
9968;SDS011;5025;48.890;9.278;2023-03-03T01:17:44;26.33;;;20.47;;
9968;SDS011;5025;48.890;9.278;2023-03-03T01:20:10;27.70;;;21.70;;
9968;SDS011;5025;48.890;9.278;2023-03-03T01:22:38;25.83;;;21.00;;
9968;SDS011;5025;48.890;9.278;2023-03-03T01:25:03;24.90;;;20.47;;
9968;SDS011;5025;48.890;9.278;2023-03-03T01:27:29;24.47;;;19.90;;
9968;SDS011;5025;48.890;9.278;2023-03-03T01:29:55;25.90;;;19.30;;
9968;SDS011;5025;48.890;9.278;2023-03-03T01:32:21;24.93;;;19.13;;
9968;SDS011;5025;48.890;9.278;2023-03-03T01:34:48;22.57;;;18.80;;
9968;SDS011;5025;48.890;9.278;2023-03-03T01:37:13;28.77;;;20.40;;
9968;SDS011;5025;48.890;9.278;2023-03-03T01:39:38;24.87;;;19.97;;
9968;SDS011;5025;48.890;9.278;2023-03-03T01:42:04;25.20;;;19.57;;
9968;SDS011;5025;48.890;9.278;2023-03-03T01:44:29;22.80;;;18.47;;
9968;SDS011;5025;48.890;9.278;2023-03-03T01:47:05;27.27;;;21.57;;
9968;SDS011;5025;48.890;9.278;2023-03-03T01:54:58;25.83;;;20.20;;
9968;SDS011;5025;48.890;9.278;2023-03-03T01:57:31;25.30;;;20.30;;
9968;SDS011;5025;48.890;9.278;2023-03-03T01:59:59;26.03;;;20.67;;
9968;SDS011;5025;48.890;9.278;2023-03-03T02:02:28;24.33;;;19.47;;
9968;SDS011;5025;48.890;9.278;2023-03-03T02:04:53;24.43;;;19.53;;
9968;SDS011;5025;48.890;9.278;2023-03-03T02:07:19;26.60;;;20.70;;
9968;SDS011;5025;48.890;9.278;2023-03-03T02:09:54;25.33;;;20.23;;
9968;SDS011;5025;48.890;9.278;2023-03-03T02:12:29;28.60;;;20.90;;
9968;SDS011;5025;48.890;9.278;2023-03-03T02:14:59;24.67;;;19.37;;
9968;SDS011;5025;48.890;9.278;2023-03-03T02:17:25;24.50;;;20.40;;
9968;SDS011;5025;48.890;9.278;2023-03-03T02:19:57;25.67;;;21.27;;
9968;SDS011;5025;48.890;9.278;2023-03-03T02:22:36;26.87;;;20.90;;
9968;SDS011;5025;48.890;9.278;2023-03-03T02:25:09;24.70;;;19.27;;
9968;SDS011;5025;48.890;9.278;2023-03-03T02:27:39;25.93;;;19.83;;
9968;SDS011;5025;48.890;9.278;2023-03-03T02:30:10;23.43;;;18.87;;
9968;SDS011;5025;48.890;9.278;2023-03-03T02:32:39;25.67;;;19.73;;
9968;SDS011;5025;48.890;9.278;2023-03-03T02:35:19;23.70;;;19.07;;
9968;SDS011;5025;48.890;9.278;2023-03-03T02:37:51;25.27;;;20.03;;
9968;SDS011;5025;48.890;9.278;2023-03-03T02:40:16;25.53;;;20.20;;
9968;SDS011;5025;48.890;9.278;2023-03-03T02:42:49;26.43;;;19.80;;
9968;SDS011;5025;48.890;9.278;2023-03-03T02:45:16;27.67;;;21.23;;
9968;SDS011;5025;48.890;9.278;2023-03-03T02:47:47;26.23;;;19.53;;
9968;SDS011;5025;48.890;9.278;2023-03-03T02:50:13;24.93;;;19.27;;
9968;SDS011;5025;48.890;9.278;2023-03-03T02:52:39;23.03;;;18.93;;
9968;SDS011;5025;48.890;9.278;2023-03-03T02:55:04;25.53;;;19.40;;
9968;SDS011;5025;48.890;9.278;2023-03-03T02:57:30;26.03;;;19.57;;
9968;SDS011;5025;48.890;9.278;2023-03-03T02:59:55;26.20;;;19.53;;
9968;SDS011;5025;48.890;9.278;2023-03-03T03:02:21;24.60;;;19.67;;
9968;SDS011;5025;48.890;9.278;2023-03-03T03:04:46;22.87;;;18.33;;
9968;SDS011;5025;48.890;9.278;2023-03-03T03:07:11;24.17;;;19.90;;
9968;SDS011;5025;48.890;9.278;2023-03-03T03:09:36;22.40;;;18.47;;
9968;SDS011;5025;48.890;9.278;2023-03-03T03:12:02;24.90;;;19.43;;
9968;SDS011;5025;48.890;9.278;2023-03-03T03:14:27;28.10;;;19.63;;
9968;SDS011;5025;48.890;9.278;2023-03-03T03:16:53;23.97;;;19.20;;
9968;SDS011;5025;48.890;9.278;2023-03-03T03:19:18;24.20;;;18.97;;
9968;SDS011;5025;48.890;9.278;2023-03-03T03:21:43;24.23;;;18.40;;
9968;SDS011;5025;48.890;9.278;2023-03-03T03:24:09;26.37;;;19.80;;
9968;SDS011;5025;48.890;9.278;2023-03-03T03:26:34;26.77;;;19.50;;
9968;SDS011;5025;48.890;9.278;2023-03-03T03:28:59;26.87;;;20.03;;
9968;SDS011;5025;48.890;9.278;2023-03-03T03:31:25;25.73;;;19.57;;
9968;SDS011;5025;48.890;9.278;2023-03-03T03:33:50;25.67;;;19.97;;
9968;SDS011;5025;48.890;9.278;2023-03-03T03:36:16;24.70;;;19.00;;
9968;SDS011;5025;48.890;9.278;2023-03-03T03:38:42;23.53;;;18.77;;
9968;SDS011;5025;48.890;9.278;2023-03-03T03:41:07;23.03;;;18.37;;
9968;SDS011;5025;48.890;9.278;2023-03-03T03:43:32;24.97;;;18.73;;
9968;SDS011;5025;48.890;9.278;2023-03-03T03:45:58;23.63;;;18.70;;
9968;SDS011;5025;48.890;9.278;2023-03-03T03:48:23;22.23;;;18.17;;
9968;SDS011;5025;48.890;9.278;2023-03-03T03:50:49;26.40;;;20.17;;
9968;SDS011;5025;48.890;9.278;2023-03-03T03:53:15;23.07;;;18.90;;
9968;SDS011;5025;48.890;9.278;2023-03-03T03:55:42;23.43;;;18.07;;
9968;SDS011;5025;48.890;9.278;2023-03-03T03:58:07;24.73;;;18.83;;
9968;SDS011;5025;48.890;9.278;2023-03-03T04:00:33;25.23;;;18.57;;
9968;SDS011;5025;48.890;9.278;2023-03-03T04:02:59;24.77;;;19.53;;
9968;SDS011;5025;48.890;9.278;2023-03-03T04:05:24;24.50;;;18.43;;
9968;SDS011;5025;48.890;9.278;2023-03-03T04:07:49;26.97;;;20.10;;
9968;SDS011;5025;48.890;9.278;2023-03-03T04:10:14;26.07;;;20.13;;
9968;SDS011;5025;48.890;9.278;2023-03-03T04:12:41;26.73;;;19.30;;
9968;SDS011;5025;48.890;9.278;2023-03-03T04:15:08;25.07;;;19.40;;
9968;SDS011;5025;48.890;9.278;2023-03-03T04:17:35;25.33;;;19.83;;
9968;SDS011;5025;48.890;9.278;2023-03-03T04:20:01;25.60;;;19.93;;
9968;SDS011;5025;48.890;9.278;2023-03-03T04:22:27;25.73;;;19.07;;
9968;SDS011;5025;48.890;9.278;2023-03-03T04:24:57;26.23;;;20.37;;
9968;SDS011;5025;48.890;9.278;2023-03-03T04:27:23;25.00;;;19.77;;
9968;SDS011;5025;48.890;9.278;2023-03-03T04:29:48;26.47;;;19.73;;
9968;SDS011;5025;48.890;9.278;2023-03-03T04:32:13;25.73;;;19.77;;
9968;SDS011;5025;48.890;9.278;2023-03-03T04:34:38;28.90;;;21.30;;
9968;SDS011;5025;48.890;9.278;2023-03-03T04:37:04;28.03;;;20.77;;
9968;SDS011;5025;48.890;9.278;2023-03-03T04:39:29;26.73;;;19.30;;
9968;SDS011;5025;48.890;9.278;2023-03-03T04:41:54;27.10;;;20.20;;
9968;SDS011;5025;48.890;9.278;2023-03-03T04:44:20;26.07;;;19.83;;
9968;SDS011;5025;48.890;9.278;2023-03-03T04:46:45;26.27;;;19.20;;
9968;SDS011;5025;48.890;9.278;2023-03-03T04:49:10;24.53;;;18.43;;
9968;SDS011;5025;48.890;9.278;2023-03-03T04:51:36;25.73;;;19.23;;
9968;SDS011;5025;48.890;9.278;2023-03-03T04:54:01;26.60;;;19.47;;
9968;SDS011;5025;48.890;9.278;2023-03-03T04:56:26;25.00;;;18.80;;
9968;SDS011;5025;48.890;9.278;2023-03-03T04:58:53;26.23;;;19.83;;
9968;SDS011;5025;48.890;9.278;2023-03-03T05:01:19;25.00;;;19.80;;
9968;SDS011;5025;48.890;9.278;2023-03-03T05:03:44;25.60;;;19.83;;
9968;SDS011;5025;48.890;9.278;2023-03-03T05:06:10;27.90;;;19.97;;
9968;SDS011;5025;48.890;9.278;2023-03-03T05:08:35;26.73;;;20.03;;
9968;SDS011;5025;48.890;9.278;2023-03-03T05:11:01;30.57;;;21.93;;
9968;SDS011;5025;48.890;9.278;2023-03-03T05:13:26;27.23;;;21.07;;
9968;SDS011;5025;48.890;9.278;2023-03-03T05:15:53;27.87;;;20.70;;
9968;SDS011;5025;48.890;9.278;2023-03-03T05:18:19;24.73;;;19.17;;
9968;SDS011;5025;48.890;9.278;2023-03-03T05:20:45;28.30;;;20.20;;
9968;SDS011;5025;48.890;9.278;2023-03-03T05:23:10;24.60;;;19.47;;
9968;SDS011;5025;48.890;9.278;2023-03-03T05:25:36;27.10;;;20.33;;
9968;SDS011;5025;48.890;9.278;2023-03-03T05:28:02;26.50;;;19.73;;
9968;SDS011;5025;48.890;9.278;2023-03-03T05:30:28;25.23;;;19.17;;
9968;SDS011;5025;48.890;9.278;2023-03-03T05:32:53;27.57;;;21.10;;
9968;SDS011;5025;48.890;9.278;2023-03-03T05:35:19;30.10;;;21.03;;
9968;SDS011;5025;48.890;9.278;2023-03-03T05:37:44;26.90;;;20.37;;
9968;SDS011;5025;48.890;9.278;2023-03-03T05:40:12;24.77;;;19.00;;
9968;SDS011;5025;48.890;9.278;2023-03-03T05:42:38;30.90;;;21.40;;
9968;SDS011;5025;48.890;9.278;2023-03-03T05:45:06;29.20;;;22.50;;
9968;SDS011;5025;48.890;9.278;2023-03-03T05:47:31;30.60;;;21.13;;
9968;SDS011;5025;48.890;9.278;2023-03-03T05:49:57;30.13;;;22.43;;
9968;SDS011;5025;48.890;9.278;2023-03-03T05:52:22;32.17;;;23.50;;
9968;SDS011;5025;48.890;9.278;2023-03-03T05:54:48;28.33;;;21.60;;
9968;SDS011;5025;48.890;9.278;2023-03-03T05:57:14;32.03;;;23.37;;
9968;SDS011;5025;48.890;9.278;2023-03-03T05:59:39;27.13;;;21.43;;
9968;SDS011;5025;48.890;9.278;2023-03-03T06:02:05;31.67;;;22.37;;
9968;SDS011;5025;48.890;9.278;2023-03-03T06:04:30;29.23;;;21.67;;
9968;SDS011;5025;48.890;9.278;2023-03-03T06:06:55;30.67;;;22.00;;
9968;SDS011;5025;48.890;9.278;2023-03-03T06:09:21;26.83;;;20.70;;
9968;SDS011;5025;48.890;9.278;2023-03-03T06:11:46;29.93;;;22.33;;
9968;SDS011;5025;48.890;9.278;2023-03-03T06:14:11;30.23;;;21.40;;
9968;SDS011;5025;48.890;9.278;2023-03-03T06:16:37;31.57;;;21.23;;
9968;SDS011;5025;48.890;9.278;2023-03-03T06:19:02;29.73;;;20.83;;
9968;SDS011;5025;48.890;9.278;2023-03-03T06:21:28;31.43;;;21.73;;
9968;SDS011;5025;48.890;9.278;2023-03-03T06:23:53;29.37;;;21.73;;
9968;SDS011;5025;48.890;9.278;2023-03-03T06:26:18;30.40;;;21.60;;
9968;SDS011;5025;48.890;9.278;2023-03-03T06:28:43;28.93;;;21.13;;
9968;SDS011;5025;48.890;9.278;2023-03-03T06:31:09;27.50;;;20.70;;
9968;SDS011;5025;48.890;9.278;2023-03-03T06:33:34;28.67;;;21.53;;
9968;SDS011;5025;48.890;9.278;2023-03-03T06:35:59;29.57;;;20.83;;
9968;SDS011;5025;48.890;9.278;2023-03-03T06:38:25;31.30;;;22.70;;
9968;SDS011;5025;48.890;9.278;2023-03-03T06:40:50;28.13;;;21.30;;
9968;SDS011;5025;48.890;9.278;2023-03-03T06:43:15;33.97;;;24.63;;
9968;SDS011;5025;48.890;9.278;2023-03-03T06:45:41;33.00;;;24.60;;
9968;SDS011;5025;48.890;9.278;2023-03-03T06:48:07;29.80;;;23.13;;
9968;SDS011;5025;48.890;9.278;2023-03-03T06:50:32;30.00;;;22.33;;
9968;SDS011;5025;48.890;9.278;2023-03-03T06:53:06;31.83;;;23.80;;
9968;SDS011;5025;48.890;9.278;2023-03-03T06:55:35;28.50;;;22.03;;
9968;SDS011;5025;48.890;9.278;2023-03-03T06:58:01;29.67;;;21.80;;
9968;SDS011;5025;48.890;9.278;2023-03-03T07:00:27;31.67;;;23.53;;
9968;SDS011;5025;48.890;9.278;2023-03-03T07:02:56;30.73;;;23.13;;
9968;SDS011;5025;48.890;9.278;2023-03-03T07:05:23;33.87;;;23.87;;
9968;SDS011;5025;48.890;9.278;2023-03-03T07:07:51;33.53;;;23.73;;
9968;SDS011;5025;48.890;9.278;2023-03-03T07:10:25;33.93;;;24.03;;
9968;SDS011;5025;48.890;9.278;2023-03-03T07:12:52;31.00;;;22.23;;
9968;SDS011;5025;48.890;9.278;2023-03-03T07:15:21;28.50;;;21.60;;
9968;SDS011;5025;48.890;9.278;2023-03-03T07:17:54;30.00;;;22.20;;
9968;SDS011;5025;48.890;9.278;2023-03-03T07:22:59;31.77;;;23.10;;
9968;SDS011;5025;48.890;9.278;2023-03-03T07:25:31;33.13;;;23.80;;
9968;SDS011;5025;48.890;9.278;2023-03-03T07:28:10;29.83;;;22.50;;
9968;SDS011;5025;48.890;9.278;2023-03-03T07:30:47;36.57;;;23.97;;
9968;SDS011;5025;48.890;9.278;2023-03-03T07:36:03;29.30;;;21.73;;
9968;SDS011;5025;48.890;9.278;2023-03-03T07:38:47;30.57;;;22.07;;
9968;SDS011;5025;48.890;9.278;2023-03-03T07:41:17;29.87;;;21.80;;
9968;SDS011;5025;48.890;9.278;2023-03-03T07:46:45;29.53;;;22.43;;
9968;SDS011;5025;48.890;9.278;2023-03-03T07:49:22;43.50;;;27.63;;
9968;SDS011;5025;48.890;9.278;2023-03-03T07:51:54;42.10;;;27.93;;
9968;SDS011;5025;48.890;9.278;2023-03-03T07:54:29;36.67;;;25.97;;
9968;SDS011;5025;48.890;9.278;2023-03-03T07:57:10;42.50;;;27.43;;
9968;SDS011;5025;48.890;9.278;2023-03-03T07:59:47;52.87;;;32.20;;
9968;SDS011;5025;48.890;9.278;2023-03-03T08:05:23;68.07;;;35.43;;
9968;SDS011;5025;48.890;9.278;2023-03-03T08:07:55;48.27;;;30.17;;
9968;SDS011;5025;48.890;9.278;2023-03-03T08:10:34;57.17;;;33.77;;
9968;SDS011;5025;48.890;9.278;2023-03-03T08:13:16;47.60;;;32.20;;
9968;SDS011;5025;48.890;9.278;2023-03-03T08:15:47;43.00;;;28.07;;
9968;SDS011;5025;48.890;9.278;2023-03-03T08:18:23;45.63;;;29.63;;
9968;SDS011;5025;48.890;9.278;2023-03-03T08:20:53;123.53;;;46.93;;
9968;SDS011;5025;48.890;9.278;2023-03-03T08:23:20;92.37;;;40.90;;
9968;SDS011;5025;48.890;9.278;2023-03-03T08:25:46;84.13;;;41.17;;
9968;SDS011;5025;48.890;9.278;2023-03-03T08:28:13;69.53;;;36.97;;
9968;SDS011;5025;48.890;9.278;2023-03-03T08:30:39;68.73;;;37.43;;
9968;SDS011;5025;48.890;9.278;2023-03-03T08:33:04;39.93;;;29.43;;
9968;SDS011;5025;48.890;9.278;2023-03-03T08:35:30;37.67;;;27.93;;
9968;SDS011;5025;48.890;9.278;2023-03-03T08:37:55;40.77;;;29.67;;
9968;SDS011;5025;48.890;9.278;2023-03-03T08:40:20;35.90;;;27.73;;
9968;SDS011;5025;48.890;9.278;2023-03-03T08:42:46;34.50;;;26.20;;
9968;SDS011;5025;48.890;9.278;2023-03-03T08:45:11;40.03;;;28.30;;
9968;SDS011;5025;48.890;9.278;2023-03-03T08:47:37;36.70;;;28.13;;
9968;SDS011;5025;48.890;9.278;2023-03-03T08:50:02;35.97;;;26.50;;
9968;SDS011;5025;48.890;9.278;2023-03-03T08:52:28;33.00;;;26.47;;
9968;SDS011;5025;48.890;9.278;2023-03-03T08:54:53;32.07;;;24.60;;
9968;SDS011;5025;48.890;9.278;2023-03-03T08:57:19;35.53;;;25.90;;
9968;SDS011;5025;48.890;9.278;2023-03-03T08:59:44;28.03;;;22.23;;
9968;SDS011;5025;48.890;9.278;2023-03-03T09:02:11;33.90;;;26.23;;
9968;SDS011;5025;48.890;9.278;2023-03-03T09:04:37;30.63;;;23.73;;
9968;SDS011;5025;48.890;9.278;2023-03-03T09:07:02;31.83;;;24.63;;
9968;SDS011;5025;48.890;9.278;2023-03-03T09:09:27;34.60;;;25.77;;
9968;SDS011;5025;48.890;9.278;2023-03-03T09:12:00;33.87;;;24.70;;
9968;SDS011;5025;48.890;9.278;2023-03-03T09:14:41;29.53;;;22.97;;
9968;SDS011;5025;48.890;9.278;2023-03-03T09:17:16;30.47;;;24.00;;
9968;SDS011;5025;48.890;9.278;2023-03-03T09:19:48;36.37;;;27.20;;
9968;SDS011;5025;48.890;9.278;2023-03-03T09:22:18;33.90;;;26.33;;
9968;SDS011;5025;48.890;9.278;2023-03-03T09:24:53;34.27;;;27.10;;
9968;SDS011;5025;48.890;9.278;2023-03-03T09:27:26;33.57;;;26.90;;
9968;SDS011;5025;48.890;9.278;2023-03-03T09:30:41;33.07;;;26.40;;
9968;SDS011;5025;48.890;9.278;2023-03-03T09:32:50;32.20;;;25.30;;
9968;SDS011;5025;48.890;9.278;2023-03-03T09:37:50;28.73;;;23.43;;
9968;SDS011;5025;48.890;9.278;2023-03-03T09:43:11;29.90;;;24.03;;
9968;SDS011;5025;48.890;9.278;2023-03-03T09:48:55;30.73;;;23.13;;
9968;SDS011;5025;48.890;9.278;2023-03-03T10:02:46;25.07;;;21.70;;
9968;SDS011;5025;48.890;9.278;2023-03-03T10:05:36;25.30;;;21.30;;
9968;SDS011;5025;48.890;9.278;2023-03-03T10:11:49;32.30;;;25.97;;
9968;SDS011;5025;48.890;9.278;2023-03-03T10:17:14;29.73;;;23.77;;
9968;SDS011;5025;48.890;9.278;2023-03-03T10:19:52;29.27;;;23.27;;
9968;SDS011;5025;48.890;9.278;2023-03-03T10:22:32;24.23;;;21.60;;
9968;SDS011;5025;48.890;9.278;2023-03-03T10:28:25;32.30;;;25.40;;
9968;SDS011;5025;48.890;9.278;2023-03-03T10:44:04;27.80;;;22.40;;
9968;SDS011;5025;48.890;9.278;2023-03-03T11:06:48;22.20;;;19.40;;
9968;SDS011;5025;48.890;9.278;2023-03-03T11:09:50;20.20;;;17.43;;
9968;SDS011;5025;48.890;9.278;2023-03-03T11:12:33;24.47;;;20.77;;
9968;SDS011;5025;48.890;9.278;2023-03-03T11:15:28;25.17;;;20.57;;
9968;SDS011;5025;48.890;9.278;2023-03-03T11:29:20;20.13;;;16.50;;
9968;SDS011;5025;48.890;9.278;2023-03-03T11:32:00;21.90;;;16.53;;
9968;SDS011;5025;48.890;9.278;2023-03-03T11:37:09;23.70;;;20.63;;
9968;SDS011;5025;48.890;9.278;2023-03-03T11:39:39;24.17;;;19.70;;
9968;SDS011;5025;48.890;9.278;2023-03-03T11:44:53;26.03;;;20.30;;
9968;SDS011;5025;48.890;9.278;2023-03-03T11:47:28;27.13;;;21.23;;
9968;SDS011;5025;48.890;9.278;2023-03-03T11:55:40;22.37;;;18.00;;
9968;SDS011;5025;48.890;9.278;2023-03-03T11:58:17;25.50;;;19.70;;
9968;SDS011;5025;48.890;9.278;2023-03-03T12:03:33;26.90;;;19.77;;
9968;SDS011;5025;48.890;9.278;2023-03-03T12:11:47;23.80;;;19.30;;
9968;SDS011;5025;48.890;9.278;2023-03-03T12:16:56;20.20;;;17.80;;
9968;SDS011;5025;48.890;9.278;2023-03-03T12:30:39;23.70;;;19.50;;
9968;SDS011;5025;48.890;9.278;2023-03-03T12:33:38;20.90;;;17.60;;
9968;SDS011;5025;48.890;9.278;2023-03-03T12:36:36;18.73;;;15.87;;
9968;SDS011;5025;48.890;9.278;2023-03-03T12:39:31;24.80;;;19.53;;
9968;SDS011;5025;48.890;9.278;2023-03-03T12:50:44;24.43;;;19.17;;
9968;SDS011;5025;48.890;9.278;2023-03-03T12:56:04;21.73;;;18.10;;
9968;SDS011;5025;48.890;9.278;2023-03-03T13:06:22;25.90;;;19.47;;
9968;SDS011;5025;48.890;9.278;2023-03-03T13:15:11;23.37;;;19.60;;
9968;SDS011;5025;48.890;9.278;2023-03-03T13:17:57;25.73;;;21.17;;
9968;SDS011;5025;48.890;9.278;2023-03-03T13:20:53;27.77;;;20.40;;
9968;SDS011;5025;48.890;9.278;2023-03-03T13:28:33;24.63;;;19.70;;
9968;SDS011;5025;48.890;9.278;2023-03-03T13:31:07;22.13;;;19.13;;
9968;SDS011;5025;48.890;9.278;2023-03-03T13:33:43;21.00;;;17.63;;
9968;SDS011;5025;48.890;9.278;2023-03-03T13:36:18;26.50;;;20.60;;
9968;SDS011;5025;48.890;9.278;2023-03-03T13:38:49;25.27;;;20.53;;
9968;SDS011;5025;48.890;9.278;2023-03-03T13:44:23;23.17;;;18.97;;
9968;SDS011;5025;48.890;9.278;2023-03-03T13:47:01;24.10;;;20.03;;
9968;SDS011;5025;48.890;9.278;2023-03-03T13:49:44;26.67;;;20.63;;
9968;SDS011;5025;48.890;9.278;2023-03-03T13:52:34;20.93;;;18.20;;
9968;SDS011;5025;48.890;9.278;2023-03-03T13:55:24;18.03;;;16.13;;
9968;SDS011;5025;48.890;9.278;2023-03-03T13:57:59;18.07;;;16.17;;
9968;SDS011;5025;48.890;9.278;2023-03-03T14:05:58;18.30;;;16.40;;
9968;SDS011;5025;48.890;9.278;2023-03-03T14:08:32;17.40;;;15.53;;
9968;SDS011;5025;48.890;9.278;2023-03-03T14:18:56;20.17;;;17.97;;
9968;SDS011;5025;48.890;9.278;2023-03-03T14:21:28;19.07;;;17.03;;
9968;SDS011;5025;48.890;9.278;2023-03-03T14:26:48;20.63;;;18.43;;
9968;SDS011;5025;48.890;9.278;2023-03-03T14:29:20;18.50;;;16.60;;
9968;SDS011;5025;48.890;9.278;2023-03-03T14:31:52;21.63;;;19.37;;
9968;SDS011;5025;48.890;9.278;2023-03-03T14:36:47;19.77;;;17.70;;
9968;SDS011;5025;48.890;9.278;2023-03-03T14:39:59;17.57;;;15.77;;
9968;SDS011;5025;48.890;9.278;2023-03-03T14:41:58;20.10;;;17.90;;
9968;SDS011;5025;48.890;9.278;2023-03-03T14:47:03;19.13;;;17.20;;
9968;SDS011;5025;48.890;9.278;2023-03-03T14:49:36;17.43;;;15.57;;
9968;SDS011;5025;48.890;9.278;2023-03-03T14:54:45;17.77;;;15.87;;
9968;SDS011;5025;48.890;9.278;2023-03-03T14:57:14;15.00;;;13.43;;
9968;SDS011;5025;48.890;9.278;2023-03-03T14:59:54;14.80;;;13.30;;
9968;SDS011;5025;48.890;9.278;2023-03-03T15:04:52;16.67;;;14.97;;
9968;SDS011;5025;48.890;9.278;2023-03-03T15:07:37;14.40;;;12.90;;
9968;SDS011;5025;48.890;9.278;2023-03-03T15:10:04;14.57;;;13.07;;
9968;SDS011;5025;48.890;9.278;2023-03-03T15:12:36;12.33;;;11.13;;
9968;SDS011;5025;48.890;9.278;2023-03-03T15:17:37;13.73;;;12.33;;
9968;SDS011;5025;48.890;9.278;2023-03-03T15:23:15;14.63;;;13.13;;
9968;SDS011;5025;48.890;9.278;2023-03-03T15:42:23;10.70;;;9.70;;
9968;SDS011;5025;48.890;9.278;2023-03-03T15:50:58;10.33;;;9.33;;
9968;SDS011;5025;48.890;9.278;2023-03-03T15:56:38;10.40;;;9.50;;
9968;SDS011;5025;48.890;9.278;2023-03-03T16:01:59;16.50;;;14.60;;
9968;SDS011;5025;48.890;9.278;2023-03-03T16:04:35;13.37;;;11.93;;
9968;SDS011;5025;48.890;9.278;2023-03-03T16:07:12;17.00;;;15.20;;
9968;SDS011;5025;48.890;9.278;2023-03-03T16:12:23;13.73;;;12.33;;
9968;SDS011;5025;48.890;9.278;2023-03-03T16:22:59;18.17;;;15.70;;
9968;SDS011;5025;48.890;9.278;2023-03-03T16:25:38;17.80;;;16.00;;
9968;SDS011;5025;48.890;9.278;2023-03-03T16:28:21;17.40;;;15.37;;
9968;SDS011;5025;48.890;9.278;2023-03-03T16:31:09;19.90;;;17.70;;
9968;SDS011;5025;48.890;9.278;2023-03-03T16:34:09;19.90;;;17.80;;
9968;SDS011;5025;48.890;9.278;2023-03-03T16:36:45;20.83;;;18.60;;
9968;SDS011;5025;48.890;9.278;2023-03-03T16:39:25;21.33;;;17.60;;
9968;SDS011;5025;48.890;9.278;2023-03-03T16:42:02;20.90;;;17.70;;
9968;SDS011;5025;48.890;9.278;2023-03-03T16:44:44;21.17;;;17.00;;
9968;SDS011;5025;48.890;9.278;2023-03-03T16:47:41;17.73;;;15.83;;
9968;SDS011;5025;48.890;9.278;2023-03-03T16:52:45;21.87;;;17.53;;
9968;SDS011;5025;48.890;9.278;2023-03-03T16:55:16;18.87;;;16.77;;
9968;SDS011;5025;48.890;9.278;2023-03-03T17:00:29;19.73;;;16.63;;
9968;SDS011;5025;48.890;9.278;2023-03-03T17:09:01;18.37;;;14.87;;
9968;SDS011;5025;48.890;9.278;2023-03-03T17:14:30;19.30;;;16.30;;
9968;SDS011;5025;48.890;9.278;2023-03-03T17:17:00;21.17;;;18.83;;
9968;SDS011;5025;48.890;9.278;2023-03-03T17:19:45;24.03;;;18.80;;
9968;SDS011;5025;48.890;9.278;2023-03-03T17:25:21;17.77;;;15.27;;
9968;SDS011;5025;48.890;9.278;2023-03-03T17:41:43;21.87;;;17.67;;
9968;SDS011;5025;48.890;9.278;2023-03-03T17:44:40;17.13;;;13.80;;
9968;SDS011;5025;48.890;9.278;2023-03-03T17:56:15;19.37;;;16.23;;
9968;SDS011;5025;48.890;9.278;2023-03-03T18:04:45;23.30;;;19.03;;
9968;SDS011;5025;48.890;9.278;2023-03-03T18:15:55;19.87;;;16.83;;
9968;SDS011;5025;48.890;9.278;2023-03-03T18:24:26;21.87;;;17.10;;
9968;SDS011;5025;48.890;9.278;2023-03-03T18:26:52;20.57;;;17.30;;
9968;SDS011;5025;48.890;9.278;2023-03-03T18:29:19;20.40;;;16.63;;
9968;SDS011;5025;48.890;9.278;2023-03-03T18:34:40;21.33;;;17.23;;
9968;SDS011;5025;48.890;9.278;2023-03-03T18:37:07;21.23;;;16.73;;
9968;SDS011;5025;48.890;9.278;2023-03-03T18:39:45;23.70;;;18.07;;
9968;SDS011;5025;48.890;9.278;2023-03-03T18:44:44;25.57;;;20.20;;
9968;SDS011;5025;48.890;9.278;2023-03-03T18:47:11;21.37;;;17.33;;
9968;SDS011;5025;48.890;9.278;2023-03-03T18:57:26;19.50;;;15.93;;
9968;SDS011;5025;48.890;9.278;2023-03-03T18:59:52;22.40;;;18.60;;
9968;SDS011;5025;48.890;9.278;2023-03-03T19:02:24;27.33;;;23.00;;
9968;SDS011;5025;48.890;9.278;2023-03-03T19:10:40;26.53;;;21.03;;
9968;SDS011;5025;48.890;9.278;2023-03-03T19:16:31;24.33;;;20.43;;
9968;SDS011;5025;48.890;9.278;2023-03-03T19:19:02;24.90;;;21.33;;
9968;SDS011;5025;48.890;9.278;2023-03-03T19:21:32;27.33;;;21.77;;
9968;SDS011;5025;48.890;9.278;2023-03-03T19:24:48;26.70;;;21.37;;
9968;SDS011;5025;48.890;9.278;2023-03-03T19:27:14;26.53;;;21.07;;
9968;SDS011;5025;48.890;9.278;2023-03-03T19:37:57;24.97;;;19.93;;
9968;SDS011;5025;48.890;9.278;2023-03-03T19:43:26;23.53;;;19.30;;
9968;SDS011;5025;48.890;9.278;2023-03-03T19:51:25;25.17;;;20.97;;
9968;SDS011;5025;48.890;9.278;2023-03-03T19:56:52;24.77;;;20.40;;
9968;SDS011;5025;48.890;9.278;2023-03-03T20:13:19;25.73;;;20.73;;
9968;SDS011;5025;48.890;9.278;2023-03-03T20:19:05;23.80;;;19.37;;
9968;SDS011;5025;48.890;9.278;2023-03-03T20:25:08;25.13;;;19.90;;
9968;SDS011;5025;48.890;9.278;2023-03-03T20:36:44;25.63;;;19.63;;
9968;SDS011;5025;48.890;9.278;2023-03-03T20:39:24;25.77;;;19.67;;
9968;SDS011;5025;48.890;9.278;2023-03-03T20:42:27;25.83;;;20.13;;
9968;SDS011;5025;48.890;9.278;2023-03-03T20:50:25;27.07;;;20.30;;
9968;SDS011;5025;48.890;9.278;2023-03-03T21:04:39;26.67;;;20.43;;
9968;SDS011;5025;48.890;9.278;2023-03-03T21:07:05;26.67;;;20.43;;
9968;SDS011;5025;48.890;9.278;2023-03-03T21:09:31;28.63;;;21.00;;
9968;SDS011;5025;48.890;9.278;2023-03-03T21:11:59;27.23;;;21.10;;
9968;SDS011;5025;48.890;9.278;2023-03-03T21:14:30;29.87;;;21.27;;
9968;SDS011;5025;48.890;9.278;2023-03-03T21:17:00;27.83;;;20.67;;
9968;SDS011;5025;48.890;9.278;2023-03-03T21:19:35;26.83;;;21.20;;
9968;SDS011;5025;48.890;9.278;2023-03-03T21:22:00;25.70;;;20.23;;
9968;SDS011;5025;48.890;9.278;2023-03-03T21:24:46;25.23;;;20.33;;
9968;SDS011;5025;48.890;9.278;2023-03-03T21:27:24;24.93;;;19.93;;
9968;SDS011;5025;48.890;9.278;2023-03-03T21:30:14;28.63;;;22.47;;
9968;SDS011;5025;48.890;9.278;2023-03-03T21:32:44;27.33;;;21.23;;